Time;durP1;ratioP1;P1;durP2;ratioP2;P2;SDS_P1;SDS_P2;PMS_P1;PMS_P2;Temp;Humidity;BMP_temperature;BMP_pressure;BME280_temperature;BME280_humidity;BME280_pressure;Samples;Min_cycle;Max_cycle;Signal;HPM_P1;HPM_P2
2023/09/21 00:01:06;;;;;;;0.50;0.50;;;16.70;99.90;;;;;;5133244;27;20206;-75
2023/09/21 00:03:36;;;;;;;0.40;0.40;;;16.70;99.90;;;;;;5132840;28;20190;-75
2023/09/21 00:06:03;;;;;;;0.40;0.40;;;16.70;99.90;;;;;;5131518;28;20691;-75
2023/09/21 00:08:30;;;;;;;0.50;0.50;;;16.70;99.90;;;;;;5131556;28;20193;-75
2023/09/21 00:10:56;;;;;;;0.40;0.40;;;16.70;99.90;;;;;;5131761;28;20198;-75
2023/09/21 00:13:27;;;;;;;0.57;0.57;;;16.70;99.90;;;;;;5132953;28;20277;-74
2023/09/21 00:16:02;;;;;;;2.60;1.25;;;16.70;99.90;;;;;;5132964;28;20235;-72
2023/09/21 00:18:29;;;;;;;0.60;0.60;;;16.70;99.90;;;;;;5132740;28;20247;-73
2023/09/21 00:20:55;;;;;;;0.43;0.43;;;16.80;99.90;;;;;;5131908;28;20561;-73
2023/09/21 00:23:25;;;;;;;0.40;0.40;;;16.80;99.90;;;;;;5114002;28;20630;-73
2023/09/21 00:25:55;;;;;;;0.52;0.52;;;16.80;99.90;;;;;;5132739;28;20288;-73
2023/09/21 00:28:21;;;;;;;0.40;0.40;;;16.80;99.90;;;;;;5132516;28;20585;-74
2023/09/21 00:30:48;;;;;;;1.13;0.88;;;16.70;99.90;;;;;;5132784;28;20239;-74
2023/09/21 00:33:14;;;;;;;0.40;0.40;;;16.80;99.90;;;;;;5132834;28;20653;-74
2023/09/21 00:35:40;;;;;;;0.30;0.30;;;16.80;99.90;;;;;;5132491;28;20299;-74
2023/09/21 00:38:10;;;;;;;0.70;0.70;;;16.80;99.90;;;;;;5132735;28;20202;-74
2023/09/21 00:40:38;;;;;;;0.80;0.50;;;16.80;99.90;;;;;;5132589;28;20189;-73
2023/09/21 00:43:05;;;;;;;0.30;0.30;;;16.80;99.90;;;;;;5114120;28;20570;-73
2023/09/21 00:45:32;;;;;;;0.65;0.60;;;16.80;99.90;;;;;;5113740;28;20681;-73
2023/09/21 00:47:59;;;;;;;0.68;0.68;;;16.80;99.90;;;;;;5132616;28;20183;-72
2023/09/21 00:50:25;;;;;;;1.02;0.98;;;16.80;99.90;;;;;;5132157;28;20265;-73
2023/09/21 00:52:53;;;;;;;1.10;0.43;;;16.80;99.90;;;;;;5132673;28;20199;-73
2023/09/21 00:55:25;;;;;;;0.52;0.52;;;16.80;99.90;;;;;;5132507;28;20187;-72
2023/09/21 00:57:57;;;;;;;0.60;0.60;;;16.80;99.90;;;;;;5132561;28;20655;-73
2023/09/21 01:00:30;;;;;;;1.52;1.02;;;16.80;99.90;;;;;;5134266;27;20193;-72
2023/09/21 01:03:07;;;;;;;0.40;0.40;;;16.80;99.90;;;;;;5136166;27;20198;-72
2023/09/21 01:05:36;;;;;;;0.65;0.65;;;16.80;99.90;;;;;;5136078;27;20714;-73
2023/09/21 01:08:09;;;;;;;0.50;0.50;;;16.70;99.90;;;;;;5135894;27;20238;-73
2023/09/21 01:10:36;;;;;;;0.40;0.40;;;16.70;99.90;;;;;;5119087;27;20195;-73
2023/09/21 01:13:03;;;;;;;0.40;0.40;;;16.80;99.90;;;;;;5115594;28;20603;-73
2023/09/21 01:15:29;;;;;;;1.38;1.17;;;16.80;99.90;;;;;;5116735;27;20222;-73
2023/09/21 01:17:55;;;;;;;3.95;0.77;;;16.80;99.90;;;;;;5135364;27;20222;-73
2023/09/21 01:20:32;;;;;;;0.52;0.52;;;16.80;99.90;;;;;;5135578;27;20691;-73
2023/09/21 01:23:18;;;;;;;0.45;0.45;;;16.80;99.90;;;;;;5117456;27;20732;-72
2023/09/21 01:25:46;;;;;;;0.50;0.50;;;16.80;99.90;;;;;;5135234;27;20671;-73
2023/09/21 01:28:18;;;;;;;0.30;0.30;;;16.80;99.90;;;;;;5135794;27;20187;-73
2023/09/21 01:30:44;;;;;;;1.30;0.50;;;16.80;99.90;;;;;;5117322;27;20191;-73
2023/09/21 01:33:15;;;;;;;0.50;0.50;;;16.70;99.90;;;;;;5135654;27;20236;-73
2023/09/21 01:35:45;;;;;;;2.70;0.93;;;16.70;99.90;;;;;;5117063;27;20205;-73
2023/09/21 01:38:14;;;;;;;0.93;0.52;;;16.70;99.90;;;;;;5135654;27;20187;-72
2023/09/21 01:40:41;;;;;;;0.70;0.70;;;16.70;99.90;;;;;;5135472;27;20681;-74
2023/09/21 01:43:08;;;;;;;1.73;0.60;;;16.70;99.90;;;;;;5135637;27;20197;-73
2023/09/21 01:45:37;;;;;;;0.63;0.63;;;16.70;99.90;;;;;;5134936;27;20229;-73
2023/09/21 01:48:09;;;;;;;0.40;0.40;;;16.70;99.90;;;;;;5117595;27;20244;-72
2023/09/21 01:50:42;;;;;;;0.85;0.85;;;16.60;99.90;;;;;;5114565;28;20191;-72
2023/09/21 01:53:11;;;;;;;4.82;0.65;;;16.70;99.90;;;;;;5118689;27;20707;-72
2023/09/21 01:55:38;;;;;;;0.50;0.43;;;16.70;99.90;;;;;;5135241;27;20183;-74
2023/09/21 01:58:05;;;;;;;0.75;0.70;;;16.60;99.90;;;;;;5135158;27;20661;-73
2023/09/21 02:00:36;;;;;;;0.60;0.60;;;16.60;99.90;;;;;;5135153;27;20718;-73
2023/09/21 02:03:04;;;;;;;3.75;1.83;;;16.60;99.90;;;;;;5135173;27;20539;-73
2023/09/21 02:05:30;;;;;;;0.40;0.40;;;16.60;99.90;;;;;;5135097;27;20187;-73
2023/09/21 02:07:55;;;;;;;1.08;0.98;;;16.70;99.90;;;;;;5135120;27;20541;-73
2023/09/21 02:10:22;;;;;;;0.50;0.50;;;16.70;99.90;;;;;;5134642;27;20190;-73
2023/09/21 02:12:56;;;;;;;0.50;0.50;;;16.70;99.90;;;;;;5133499;27;20600;-73
2023/09/21 02:15:23;;;;;;;0.65;0.65;;;16.70;99.90;;;;;;5134802;27;20657;-73
2023/09/21 02:17:49;;;;;;;0.40;0.40;;;16.70;99.90;;;;;;5134906;27;20183;-73
2023/09/21 02:20:15;;;;;;;0.50;0.50;;;16.70;99.90;;;;;;5135149;27;20190;-72
2023/09/21 02:22:46;;;;;;;0.55;0.55;;;16.70;99.90;;;;;;5116119;27;20657;-73
2023/09/21 02:25:12;;;;;;;0.50;0.50;;;16.70;99.90;;;;;;5134715;27;20239;-74
2023/09/21 02:27:43;;;;;;;0.75;0.75;;;16.70;99.90;;;;;;5134338;27;20669;-73
2023/09/21 02:30:13;;;;;;;0.40;0.40;;;16.70;99.90;;;;;;5116187;27;20550;-73
2023/09/21 02:32:42;;;;;;;1.98;0.80;;;16.70;99.90;;;;;;5134504;27;20198;-73
2023/09/21 02:35:15;;;;;;;0.60;0.60;;;16.70;99.90;;;;;;5134400;27;20195;-72
2023/09/21 02:37:48;;;;;;;0.40;0.40;;;16.70;99.90;;;;;;5134315;27;20276;-73
2023/09/21 02:40:14;;;;;;;0.60;0.60;;;16.70;99.90;;;;;;5115921;27;20198;-72
2023/09/21 02:43:00;;;;;;;0.90;0.90;;;16.70;99.90;;;;;;5111703;28;20269;-72
2023/09/21 02:45:27;;;;;;;0.43;0.43;;;16.70;99.90;;;;;;5113360;28;20673;-71
2023/09/21 02:48:00;;;;;;;1.33;0.95;;;16.70;99.90;;;;;;5113591;28;20248;-72
2023/09/21 02:50:27;;;;;;;0.55;0.55;;;16.70;99.90;;;;;;5125848;27;20202;-73
2023/09/21 02:52:58;;;;;;;0.40;0.40;;;16.60;99.90;;;;;;5134379;27;20186;-72
2023/09/21 02:55:26;;;;;;;6.75;1.00;;;16.60;99.90;;;;;;5134024;27;20588;-73
2023/09/21 02:57:56;;;;;;;0.30;0.30;;;16.60;99.90;;;;;;5134122;27;20189;-73
2023/09/21 03:00:34;;;;;;;0.55;0.52;;;16.60;99.90;;;;;;5133889;27;20189;-71
2023/09/21 03:03:04;;;;;;;0.43;0.43;;;16.60;99.90;;;;;;5132435;27;20239;-72
2023/09/21 03:05:33;;;;;;;0.40;0.40;;;16.60;99.90;;;;;;5115278;27;20195;-73
2023/09/21 03:08:09;;;;;;;0.63;0.35;;;16.60;99.90;;;;;;5132917;27;20541;-73
2023/09/21 03:10:36;;;;;;;1.60;1.50;;;16.60;99.90;;;;;;5133849;27;20185;-72
2023/09/21 03:13:02;;;;;;;9.07;0.82;;;16.60;99.90;;;;;;5133943;27;20201;-73
2023/09/21 03:15:29;;;;;;;0.55;0.55;;;16.50;99.90;;;;;;5133766;27;20187;-72
2023/09/21 03:17:55;;;;;;;0.63;0.63;;;16.50;99.90;;;;;;5133662;27;20183;-73
2023/09/21 03:20:31;;;;;;;0.30;0.30;;;16.50;99.90;;;;;;5133562;27;20301;-73
2023/09/21 03:22:57;;;;;;;0.45;0.45;;;16.50;99.90;;;;;;5132974;27;20243;-73
2023/09/21 03:25:33;;;;;;;1.10;0.98;;;16.50;99.90;;;;;;5133099;27;20218;-73
2023/09/21 03:28:07;;;;;;;0.40;0.40;;;16.50;99.90;;;;;;5121136;27;20206;-73
2023/09/21 03:30:32;;;;;;;1.63;1.17;;;16.50;99.90;;;;;;5112857;28;20206;-73
2023/09/21 03:32:59;;;;;;;0.50;0.47;;;16.50;99.90;;;;;;5113039;28;20191;-73
2023/09/21 03:35:27;;;;;;;0.60;0.60;;;16.50;99.90;;;;;;5125268;27;20653;-73
2023/09/21 03:37:53;;;;;;;0.85;0.85;;;16.50;99.90;;;;;;5133498;27;20206;-73
2023/09/21 03:40:19;;;;;;;0.90;0.80;;;16.50;99.90;;;;;;5117197;27;20504;-73
2023/09/21 03:42:45;;;;;;;0.57;0.57;;;16.50;99.90;;;;;;5094538;28;20248;-75
2023/09/21 03:45:15;;;;;;;1.00;0.93;;;16.50;99.90;;;;;;5112480;28;20624;-74
2023/09/21 03:47:42;;;;;;;0.60;0.60;;;16.50;99.90;;;;;;5112497;28;20203;-74
2023/09/21 03:50:12;;;;;;;0.65;0.60;;;16.50;99.90;;;;;;5112717;28;20671;-73
2023/09/21 03:52:42;;;;;;;2.25;1.40;;;16.50;99.90;;;;;;5112554;28;20531;-72
2023/09/21 03:55:15;;;;;;;0.70;0.55;;;16.50;99.90;;;;;;5112588;28;20283;-73
2023/09/21 03:57:47;;;;;;;1.33;1.23;;;16.50;99.90;;;;;;5112555;28;20184;-72
2023/09/21 04:00:29;;;;;;;0.50;0.50;;;16.50;99.90;;;;;;5112565;28;20244;-73
2023/09/21 04:02:59;;;;;;;0.57;0.57;;;16.50;99.90;;;;;;5111219;28;20244;-73
2023/09/21 04:05:26;;;;;;;0.40;0.40;;;16.50;99.90;;;;;;5124632;28;20195;-73
2023/09/21 04:07:52;;;;;;;1.67;0.95;;;16.40;99.90;;;;;;5133064;28;20207;-73
2023/09/21 04:10:18;;;;;;;1.17;0.85;;;16.40;99.90;;;;;;5114347;28;20278;-73
2023/09/21 04:12:54;;;;;;;0.63;0.60;;;16.50;99.90;;;;;;5133255;28;20319;-71
2023/09/21 04:15:20;;;;;;;0.60;0.60;;;16.40;99.90;;;;;;5132923;28;20265;-73
2023/09/21 04:17:47;;;;;;;0.73;0.68;;;16.40;99.90;;;;;;5132988;28;20199;-73
2023/09/21 04:20:14;;;;;;;0.70;0.70;;;16.50;99.90;;;;;;5114441;28;20198;-73
2023/09/21 04:22:43;;;;;;;4.50;0.93;;;16.40;99.90;;;;;;5132719;28;20214;-72
2023/09/21 04:25:14;;;;;;;0.65;0.65;;;16.40;99.90;;;;;;5132764;28;20556;-72
2023/09/21 04:27:47;;;;;;;0.45;0.45;;;16.40;99.90;;;;;;5132538;28;20203;-72
2023/09/21 04:30:17;;;;;;;1.35;1.02;;;16.40;99.90;;;;;;5132590;28;20190;-73
2023/09/21 04:32:46;;;;;;;2.67;1.88;;;16.40;99.90;;;;;;5132737;28;20183;-74
2023/09/21 04:35:12;;;;;;;4.07;1.38;;;16.40;99.90;;;;;;5130022;27;20187;-73
2023/09/21 04:37:38;;;;;;;0.63;0.63;;;16.40;99.90;;;;;;5116081;28;20865;-72
2023/09/21 04:40:11;;;;;;;0.85;0.85;;;16.40;99.90;;;;;;5116168;28;20199;-73
2023/09/21 04:42:38;;;;;;;0.43;0.43;;;16.40;99.90;;;;;;5125936;27;20202;-72
2023/09/21 04:45:09;;;;;;;1.95;0.80;;;16.40;99.90;;;;;;5136715;27;20229;-71
2023/09/21 04:47:47;;;;;;;0.57;0.57;;;16.40;99.90;;;;;;5135261;27;20633;-71
2023/09/21 04:50:14;;;;;;;1.20;0.60;;;16.40;99.90;;;;;;5135301;27;20665;-71
2023/09/21 04:52:40;;;;;;;0.38;0.38;;;16.40;99.90;;;;;;5136446;27;20235;-76
2023/09/21 04:55:09;;;;;;;5.15;1.05;;;16.40;99.90;;;;;;5137133;27;20657;-70
2023/09/21 04:57:36;;;;;;;0.93;0.85;;;16.40;99.90;;;;;;5136436;27;20662;-71
2023/09/21 05:00:07;;;;;;;0.80;0.80;;;16.40;99.90;;;;;;5136341;27;20244;-71
2023/09/21 05:02:33;;;;;;;0.45;0.45;;;16.40;99.90;;;;;;5135855;27;20225;-70
2023/09/21 05:04:59;;;;;;;0.47;0.47;;;16.40;99.90;;;;;;5136356;27;20191;-70
2023/09/21 05:07:25;;;;;;;0.50;0.50;;;16.40;99.90;;;;;;5135893;27;20662;-70
2023/09/21 05:09:51;;;;;;;0.95;0.95;;;16.40;99.90;;;;;;5136113;27;20247;-71
2023/09/21 05:12:20;;;;;;;3.42;1.13;;;16.40;99.90;;;;;;5117723;27;20195;-70
2023/09/21 05:14:47;;;;;;;0.40;0.40;;;16.40;99.90;;;;;;5136166;27;20687;-70
2023/09/21 05:17:14;;;;;;;0.70;0.70;;;16.40;99.90;;;;;;5136160;27;20246;-70
2023/09/21 05:19:40;;;;;;;0.60;0.60;;;16.40;99.90;;;;;;5135949;27;20282;-70
2023/09/21 05:22:08;;;;;;;0.55;0.55;;;16.40;99.90;;;;;;5136049;27;20205;-71
2023/09/21 05:24:36;;;;;;;0.50;0.50;;;16.40;99.90;;;;;;5135842;27;20201;-70
2023/09/21 05:27:02;;;;;;;0.90;0.70;;;16.40;99.90;;;;;;5135874;27;20223;-70
2023/09/21 05:29:27;;;;;;;0.68;0.68;;;16.40;99.90;;;;;;5135900;27;20182;-71
2023/09/21 05:31:56;;;;;;;0.32;0.32;;;16.40;99.90;;;;;;5135560;27;20209;-70
2023/09/21 05:34:24;;;;;;;0.80;0.80;;;16.40;99.90;;;;;;5135342;27;20239;-71
2023/09/21 05:36:50;;;;;;;0.30;0.30;;;16.40;99.90;;;;;;5135803;27;20191;-70
2023/09/21 05:39:16;;;;;;;0.55;0.55;;;16.40;99.90;;;;;;5135564;27;20741;-70
2023/09/21 05:41:54;;;;;;;0.98;0.70;;;16.40;99.90;;;;;;5135854;27;20209;-70
2023/09/21 05:44:25;;;;;;;0.52;0.52;;;16.40;99.90;;;;;;5135223;27;20222;-72
2023/09/21 05:46:50;;;;;;;0.55;0.55;;;16.50;99.90;;;;;;5134528;27;20199;-70
2023/09/21 05:49:27;;;;;;;0.50;0.50;;;16.50;99.90;;;;;;5134160;27;20243;-70
2023/09/21 05:51:56;;;;;;;0.57;0.57;;;16.50;99.90;;;;;;5135496;27;20186;-71
2023/09/21 05:54:26;;;;;;;0.60;0.60;;;16.40;99.90;;;;;;5133991;27;20199;-71
2023/09/21 05:56:55;;;;;;;0.47;0.43;;;16.50;99.90;;;;;;5135060;27;20202;-71
2023/09/21 05:59:22;;;;;;;0.52;0.52;;;16.50;99.90;;;;;;5116693;27;20958;-70
2023/09/21 06:01:48;;;;;;;0.70;0.70;;;16.50;99.90;;;;;;5135294;27;20274;-70
2023/09/21 06:04:16;;;;;;;0.80;0.80;;;16.50;99.90;;;;;;5135407;27;20199;-73
2023/09/21 06:06:43;;;;;;;0.50;0.50;;;16.50;99.90;;;;;;5120618;27;20199;-73
2023/09/21 06:09:10;;;;;;;0.95;0.90;;;16.60;99.90;;;;;;5114579;28;20195;-74
2023/09/21 06:11:36;;;;;;;0.57;0.57;;;16.60;99.90;;;;;;5114397;28;20270;-74
2023/09/21 06:14:02;;;;;;;0.30;0.30;;;16.60;99.90;;;;;;5114432;28;20203;-73
2023/09/21 06:16:29;;;;;;;0.60;0.60;;;16.60;99.90;;;;;;5114286;28;20194;-73
2023/09/21 06:18:55;;;;;;;0.50;0.50;;;16.60;99.90;;;;;;5114247;28;20654;-73
2023/09/21 06:21:20;;;;;;;0.20;0.20;;;16.60;99.90;;;;;;5114184;28;20420;-73
2023/09/21 06:23:49;;;;;;;0.40;0.40;;;16.60;99.90;;;;;;5114105;28;20195;-73
2023/09/21 06:26:15;;;;;;;0.40;0.40;;;16.70;99.90;;;;;;5124170;27;20746;-73
2023/09/21 06:28:47;;;;;;;0.50;0.50;;;16.70;99.90;;;;;;5103222;28;20191;-73
2023/09/21 06:31:14;;;;;;;0.40;0.40;;;16.70;99.90;;;;;;5113958;28;20229;-73
2023/09/21 06:33:40;;;;;;;0.50;0.50;;;16.80;99.90;;;;;;5095980;28;21381;-73
2023/09/21 06:36:14;;;;;;;0.43;0.43;;;16.90;99.90;;;;;;5132051;27;20215;-73
2023/09/21 06:38:43;;;;;;;0.40;0.40;;;16.90;99.90;;;;;;5134338;27;20268;-73
2023/09/21 06:41:12;;;;;;;0.30;0.30;;;17.00;99.90;;;;;;5134623;27;20199;-73
2023/09/21 06:43:40;;;;;;;0.75;0.75;;;17.10;99.90;;;;;;5134068;27;20194;-73
2023/09/21 06:46:06;;;;;;;0.57;0.57;;;17.10;99.90;;;;;;5134197;27;20637;-73
2023/09/21 06:48:32;;;;;;;1.40;0.93;;;17.10;99.90;;;;;;5134184;27;20214;-73
2023/09/21 06:50:57;;;;;;;0.70;0.70;;;17.10;99.90;;;;;;5134318;27;20187;-73
2023/09/21 06:53:24;;;;;;;0.30;0.30;;;17.10;99.90;;;;;;5129763;27;20478;-74
2023/09/21 06:55:50;;;;;;;1.65;1.05;;;17.10;99.90;;;;;;5134020;27;20187;-73
2023/09/21 06:58:16;;;;;;;2.05;0.82;;;17.10;99.90;;;;;;5133821;27;20190;-73
2023/09/21 07:00:42;;;;;;;0.40;0.40;;;17.10;99.90;;;;;;5115224;27;20208;-73
2023/09/21 07:03:09;;;;;;;0.50;0.50;;;17.10;99.90;;;;;;5133819;27;20213;-73
2023/09/21 07:05:34;;;;;;;0.55;0.55;;;17.20;99.90;;;;;;5133484;27;20228;-72
2023/09/21 07:08:00;;;;;;;0.50;0.50;;;17.20;99.90;;;;;;5133657;27;20244;-73
2023/09/21 07:10:26;;;;;;;0.93;0.52;;;17.20;99.90;;;;;;5133479;27;20190;-72
2023/09/21 07:12:53;;;;;;;0.70;0.70;;;17.40;99.90;;;;;;5133757;27;20205;-73
2023/09/21 07:15:19;;;;;;;0.30;0.30;;;17.40;99.90;;;;;;5133664;27;20187;-72
2023/09/21 07:17:46;;;;;;;0.60;0.60;;;17.40;99.90;;;;;;5133509;27;20595;-71
2023/09/21 07:20:12;;;;;;;0.30;0.30;;;17.50;99.90;;;;;;5133613;27;20547;-71
2023/09/21 07:22:38;;;;;;;0.73;0.70;;;17.60;99.90;;;;;;5133174;27;20202;-70
2023/09/21 07:25:04;;;;;;;0.68;0.63;;;17.60;99.90;;;;;;5133192;27;20198;-71
2023/09/21 07:27:30;;;;;;;0.45;0.45;;;17.50;99.90;;;;;;5133105;27;20210;-71
2023/09/21 07:29:56;;;;;;;1.48;1.15;;;17.60;99.90;;;;;;5133173;27;20187;-70
2023/09/21 07:32:25;;;;;;;0.40;0.40;;;17.60;99.90;;;;;;5133162;27;20677;-71
2023/09/21 07:34:51;;;;;;;1.95;0.52;;;17.80;99.90;;;;;;5125422;27;20191;-71
2023/09/21 07:37:16;;;;;;;0.30;0.30;;;17.90;99.90;;;;;;5112627;28;20278;-71
2023/09/21 07:39:42;;;;;;;0.40;0.40;;;18.10;99.90;;;;;;5112483;28;20275;-70
2023/09/21 07:42:09;;;;;;;0.52;0.52;;;18.30;99.90;;;;;;5112374;28;20278;-71
2023/09/21 07:44:35;;;;;;;0.38;0.38;;;18.40;99.90;;;;;;5112299;28;20288;-72
2023/09/21 07:47:02;;;;;;;0.45;0.45;;;18.60;99.90;;;;;;5112503;28;20211;-71
2023/09/21 07:49:28;;;;;;;0.52;0.52;;;18.70;99.90;;;;;;5116547;27;20241;-71
2023/09/21 07:51:59;;;;;;;0.60;0.60;;;18.90;99.90;;;;;;5132855;27;20260;-71
2023/09/21 07:54:24;;;;;;;0.40;0.40;;;18.90;99.90;;;;;;5132954;27;20243;-70
2023/09/21 07:56:50;;;;;;;0.60;0.60;;;19.10;99.90;;;;;;5133297;27;20191;-70
2023/09/21 07:59:16;;;;;;;0.38;0.38;;;19.10;99.90;;;;;;5133057;27;20190;-71
2023/09/21 08:01:41;;;;;;;0.52;0.52;;;19.10;99.90;;;;;;5114399;27;20600;-71
2023/09/21 08:04:07;;;;;;;0.30;0.30;;;19.30;99.90;;;;;;5132776;27;20226;-70
2023/09/21 08:06:33;;;;;;;2.45;1.00;;;19.40;99.90;;;;;;5132715;28;20203;-70
2023/09/21 08:08:59;;;;;;;0.88;0.80;;;19.10;99.90;;;;;;5122151;28;20251;-70
2023/09/21 08:11:25;;;;;;;0.40;0.40;;;19.00;99.90;;;;;;5112044;28;20203;-71
2023/09/21 08:13:51;;;;;;;0.73;0.55;;;18.90;99.90;;;;;;5112553;28;20195;-70
2023/09/21 08:16:17;;;;;;;0.30;0.30;;;18.70;99.90;;;;;;5094055;28;20202;-70
2023/09/21 08:18:42;;;;;;;0.60;0.60;;;18.70;99.90;;;;;;5093777;28;20191;-70
2023/09/21 08:21:11;;;;;;;0.40;0.40;;;18.70;99.90;;;;;;5093956;28;20658;-71
2023/09/21 08:23:37;;;;;;;0.70;0.70;;;18.50;99.90;;;;;;5112342;28;20654;-75
2023/09/21 08:26:03;;;;;;;0.50;0.50;;;18.50;99.90;;;;;;5093795;28;20567;-75
2023/09/21 08:28:29;;;;;;;0.35;0.35;;;18.50;99.90;;;;;;5129410;28;20187;-76
2023/09/21 08:30:57;;;;;;;1.73;0.77;;;18.40;99.90;;;;;;5132725;28;20244;-75
2023/09/21 08:33:23;;;;;;;0.30;0.30;;;18.40;99.90;;;;;;5132780;28;20187;-75
2023/09/21 08:35:49;;;;;;;0.50;0.50;;;18.40;99.90;;;;;;5116589;28;20528;-75
2023/09/21 08:38:18;;;;;;;0.35;0.35;;;18.30;99.90;;;;;;5112050;28;20266;-75
2023/09/21 08:40:47;;;;;;;0.32;0.32;;;18.30;99.90;;;;;;5130234;28;20247;-76
2023/09/21 08:43:24;;;;;;;1.63;0.70;;;18.30;99.90;;;;;;5114145;28;20621;-75
2023/09/21 08:45:51;;;;;;;0.40;0.40;;;18.20;99.90;;;;;;5132108;28;20577;-74
2023/09/21 08:48:23;;;;;;;0.70;0.70;;;18.20;99.90;;;;;;5132556;28;20747;-74
2023/09/21 08:50:52;;;;;;;1.48;0.82;;;18.20;99.90;;;;;;5132879;28;20187;-75
2023/09/21 08:53:23;;;;;;;0.43;0.43;;;18.20;99.90;;;;;;5132665;28;20191;-75
2023/09/21 08:55:51;;;;;;;2.97;1.55;;;18.20;99.90;;;;;;5132543;28;20236;-75
2023/09/21 08:58:25;;;;;;;0.47;0.47;;;18.40;99.90;;;;;;5114281;28;20199;-75
2023/09/21 09:00:56;;;;;;;0.25;0.25;;;18.50;99.90;;;;;;5114067;28;20209;-76
2023/09/21 09:03:26;;;;;;;0.90;0.80;;;18.50;99.90;;;;;;5132343;27;20331;-75
2023/09/21 09:05:58;;;;;;;0.82;0.47;;;18.60;99.90;;;;;;5132349;28;20274;-76
2023/09/21 09:08:24;;;;;;;0.65;0.65;;;18.60;99.90;;;;;;5132298;28;20235;-76
2023/09/21 09:10:51;;;;;;;0.65;0.65;;;18.40;99.90;;;;;;5132523;28;20190;-76
2023/09/21 09:13:17;;;;;;;0.77;0.77;;;18.40;99.90;;;;;;5132472;28;20187;-77
2023/09/21 09:15:45;;;;;;;0.75;0.73;;;18.50;99.90;;;;;;5132295;28;20183;-76
2023/09/21 09:18:12;;;;;;;0.43;0.43;;;18.60;99.90;;;;;;5113344;28;20191;-75
2023/09/21 09:20:38;;;;;;;0.63;0.63;;;18.70;99.90;;;;;;5111772;28;20663;-75
2023/09/21 09:23:10;;;;;;;0.77;0.77;;;18.80;99.90;;;;;;5117718;27;20223;-75
2023/09/21 09:25:40;;;;;;;0.90;0.80;;;18.80;99.90;;;;;;5136015;27;20187;-76
2023/09/21 09:28:08;;;;;;;0.52;0.52;;;18.90;99.90;;;;;;5135732;27;20207;-77
2023/09/21 09:30:35;;;;;;;0.22;0.22;;;19.10;99.90;;;;;;5136097;27;20210;-76
2023/09/21 09:33:03;;;;;;;0.82;0.68;;;19.30;99.90;;;;;;5135885;27;20193;-74
2023/09/21 09:35:30;;;;;;;0.40;0.40;;;19.40;99.90;;;;;;5122426;27;20199;-73
2023/09/21 09:37:57;;;;;;;0.43;0.43;;;19.40;99.90;;;;;;5096905;28;20200;-77
2023/09/21 09:40:26;;;;;;;0.80;0.73;;;19.70;99.90;;;;;;5114831;28;20248;-74
2023/09/21 09:42:52;;;;;;;1.15;0.65;;;19.70;99.90;;;;;;5108552;27;20195;-74
2023/09/21 09:45:25;;;;;;;0.30;0.30;;;20.00;99.90;;;;;;5135409;27;20596;-73
2023/09/21 09:47:56;;;;;;;0.20;0.20;;;20.50;99.90;;;;;;5135457;27;20207;-73
2023/09/21 09:50:30;;;;;;;0.30;0.30;;;21.00;99.90;;;;;;5135308;27;20213;-74
2023/09/21 09:53:07;;;;;;;0.40;0.40;;;21.50;99.90;;;;;;5135537;27;20207;-73
2023/09/21 09:55:35;;;;;;;16.92;1.85;;;21.50;99.90;;;;;;5135288;27;20766;-74
2023/09/21 09:58:02;;;;;;;0.30;0.30;;;21.40;99.90;;;;;;5135384;27;20222;-74
2023/09/21 10:00:29;;;;;;;0.57;0.43;;;21.50;99.90;;;;;;5135026;27;20748;-73
2023/09/21 10:02:58;;;;;;;0.20;0.20;;;21.40;99.90;;;;;;5135303;27;20194;-73
2023/09/21 10:05:26;;;;;;;0.50;0.50;;;21.50;99.90;;;;;;5134922;27;20274;-74
2023/09/21 10:07:54;;;;;;;4.60;0.68;;;21.80;99.90;;;;;;5135019;27;20213;-74
2023/09/21 10:10:22;;;;;;;0.47;0.47;;;21.80;99.90;;;;;;5135020;27;20638;-73
2023/09/21 10:12:51;;;;;;;0.40;0.40;;;22.10;99.90;;;;;;5129970;27;20197;-74
2023/09/21 10:15:17;;;;;;;0.60;0.60;;;22.30;99.90;;;;;;5096140;28;20689;-74
2023/09/21 10:17:43;;;;;;;0.82;0.45;;;22.50;99.90;;;;;;5095865;28;20202;-73
2023/09/21 10:20:16;;;;;;;0.75;0.68;;;22.70;99.90;;;;;;5112857;27;20293;-74
2023/09/21 10:22:43;;;;;;;0.98;0.88;;;22.20;99.90;;;;;;5134736;27;20205;-74
2023/09/21 10:25:10;;;;;;;0.43;0.40;;;21.90;99.90;;;;;;5134828;27;20273;-73
2023/09/21 10:27:38;;;;;;;0.20;0.20;;;21.70;99.90;;;;;;5134316;27;20255;-73
2023/09/21 10:30:08;;;;;;;0.40;0.40;;;21.40;99.90;;;;;;5134957;27;20289;-73
2023/09/21 10:32:44;;;;;;;0.43;0.43;;;21.30;99.90;;;;;;5120729;27;20749;-72
2023/09/21 10:35:23;;;;;;;0.38;0.38;;;21.10;99.90;;;;;;5124372;27;20332;-73
2023/09/21 10:38:11;;;;;;;0.68;0.68;;;20.90;99.90;;;;;;5134309;27;20191;-73
2023/09/21 10:40:37;;;;;;;0.28;0.28;;;20.90;99.90;;;;;;5114762;27;20210;-73
2023/09/21 10:43:38;;;;;;;0.35;0.35;;;20.90;99.90;;;;;;5116146;27;20195;-76
2023/09/21 10:46:26;;;;;;;0.43;0.43;;;20.80;99.90;;;;;;5133892;27;20214;-74
2023/09/21 10:49:16;;;;;;;0.55;0.50;;;21.20;99.90;;;;;;5115980;27;20214;-74
2023/09/21 10:51:43;;;;;;;0.40;0.40;;;21.40;99.90;;;;;;5134124;27;20179;-74
2023/09/21 10:54:12;;;;;;;0.43;0.40;;;21.50;99.90;;;;;;5134376;27;20564;-74
2023/09/21 10:56:38;;;;;;;0.30;0.30;;;21.60;99.90;;;;;;5134070;27;20297;-74
2023/09/21 10:59:06;;;;;;;0.40;0.40;;;21.40;99.90;;;;;;5134229;27;20266;-74
2023/09/21 11:01:32;;;;;;;0.73;0.60;;;21.50;99.90;;;;;;5134059;27;20189;-73
2023/09/21 11:04:02;;;;;;;0.52;0.52;;;21.60;99.90;;;;;;5115519;27;20199;-73
2023/09/21 11:06:29;;;;;;;0.45;0.40;;;22.10;99.90;;;;;;5133748;27;20203;-73
2023/09/21 11:08:55;;;;;;;1.05;0.60;;;22.30;99.90;;;;;;5130333;27;20187;-73
2023/09/21 11:11:22;;;;;;;1.23;0.82;;;22.80;99.90;;;;;;5113143;28;20298;-73
2023/09/21 11:13:54;;;;;;;0.30;0.30;;;22.90;99.90;;;;;;5095085;28;20196;-73
2023/09/21 11:16:21;;;;;;;0.70;0.60;;;23.10;99.90;;;;;;5110559;27;20688;-73
2023/09/21 11:18:48;;;;;;;0.32;0.32;;;23.00;99.90;;;;;;5133762;27;20187;-73
2023/09/21 11:21:16;;;;;;;0.20;0.20;;;23.10;99.90;;;;;;5132426;27;20195;-73
2023/09/21 11:23:43;;;;;;;0.50;0.50;;;23.20;99.90;;;;;;5133431;27;20191;-73
2023/09/21 11:26:14;;;;;;;1.55;0.52;;;23.50;99.90;;;;;;5133597;27;20673;-74
2023/09/21 11:28:41;;;;;;;0.35;0.35;;;23.60;99.90;;;;;;5133428;27;20771;-73
2023/09/21 11:31:08;;;;;;;0.40;0.40;;;23.60;99.90;;;;;;5132253;27;20194;-73
2023/09/21 11:33:34;;;;;;;0.32;0.32;;;23.60;99.90;;;;;;5133395;27;20213;-73
2023/09/21 11:36:01;;;;;;;0.30;0.30;;;23.60;99.90;;;;;;5117497;27;20649;-73
2023/09/21 11:38:29;;;;;;;0.40;0.40;;;23.20;99.90;;;;;;5133213;27;20608;-73
2023/09/21 11:40:55;;;;;;;0.22;0.22;;;23.20;99.90;;;;;;5133418;27;20191;-73
2023/09/21 11:43:22;;;;;;;0.50;0.50;;;23.60;99.90;;;;;;5114702;27;20259;-74
2023/09/21 11:45:47;;;;;;;0.30;0.30;;;23.50;99.90;;;;;;5132537;27;20219;-74
2023/09/21 11:48:13;;;;;;;0.45;0.30;;;23.40;99.90;;;;;;5133427;27;20247;-73
2023/09/21 11:50:43;;;;;;;0.47;0.47;;;23.20;99.90;;;;;;5133228;27;20269;-73
2023/09/21 11:53:08;;;;;;;0.22;0.22;;;23.00;99.90;;;;;;5133357;27;20277;-73
2023/09/21 11:55:38;;;;;;;0.50;0.50;;;22.90;99.90;;;;;;5133260;27;20222;-76
2023/09/21 11:58:11;;;;;;;13.07;0.73;;;22.50;99.90;;;;;;5133199;27;20277;-76
2023/09/21 12:00:45;;;;;;;0.30;0.30;;;22.10;99.90;;;;;;5132913;27;20190;-76
2023/09/21 12:03:16;;;;;;;0.52;0.52;;;21.90;99.90;;;;;;5132988;27;20218;-76
2023/09/21 12:05:45;;;;;;;0.55;0.40;;;21.90;99.90;;;;;;5124310;27;20282;-75
2023/09/21 12:08:14;;;;;;;0.75;0.65;;;22.00;99.90;;;;;;5112487;28;20203;-76
2023/09/21 12:10:47;;;;;;;0.30;0.30;;;22.10;99.90;;;;;;5112374;28;20183;-76
2023/09/21 12:13:13;;;;;;;0.30;0.30;;;22.20;99.90;;;;;;5127369;28;20283;-77
2023/09/21 12:15:40;;;;;;;0.95;0.38;;;22.40;99.90;;;;;;5131444;28;20199;-77
2023/09/21 12:18:12;;;;;;;0.20;0.20;;;22.40;99.90;;;;;;5132815;28;20193;-76
2023/09/21 12:20:42;;;;;;;0.40;0.40;;;22.40;99.90;;;;;;5132785;28;20670;-76
2023/09/21 12:23:09;;;;;;;0.20;0.20;;;22.60;99.90;;;;;;5132819;28;20186;-76
2023/09/21 12:25:35;;;;;;;0.52;0.40;;;22.80;99.90;;;;;;5132851;28;20205;-77
2023/09/21 12:28:01;;;;;;;0.77;0.75;;;23.00;99.90;;;;;;5133008;28;20207;-76
2023/09/21 12:30:26;;;;;;;0.20;0.20;;;23.20;99.90;;;;;;5130647;28;20259;-76
2023/09/21 12:32:52;;;;;;;0.30;0.30;;;23.40;99.90;;;;;;5133081;28;20657;-77
2023/09/21 12:35:25;;;;;;;0.70;0.70;;;23.30;99.90;;;;;;5132664;28;20186;-77
2023/09/21 12:37:51;;;;;;;0.20;0.20;;;23.50;99.90;;;;;;5132675;28;20619;-77
2023/09/21 12:40:18;;;;;;;0.55;0.50;;;23.60;99.90;;;;;;5132838;28;20271;-77
2023/09/21 12:42:45;;;;;;;0.10;0.10;;;23.60;99.90;;;;;;5114277;28;20198;-76
2023/09/21 12:45:17;;;;;;;0.55;0.43;;;23.30;99.90;;;;;;5110844;28;20228;-77
2023/09/21 12:47:44;;;;;;;0.60;0.60;;;23.10;99.90;;;;;;5112087;28;20203;-76
2023/09/21 12:50:11;;;;;;;0.40;0.40;;;22.80;99.90;;;;;;5111040;28;20196;-76
2023/09/21 12:52:37;;;;;;;0.47;0.47;;;22.80;99.90;;;;;;5112316;28;20196;-76
2023/09/21 12:55:07;;;;;;;0.47;0.38;;;22.90;99.90;;;;;;5112153;28;20196;-76